sensor_id;sensor_type;location;lat;lon;timestamp;temperature;humidity
1021;DHT22;499;42.648;23.270;2022-07-23T00:01:20;20.80;18.70
1021;DHT22;499;42.648;23.270;2022-07-23T00:03:47;20.70;18.60
1021;DHT22;499;42.648;23.270;2022-07-23T00:06:16;20.70;18.60
1021;DHT22;499;42.648;23.270;2022-07-23T00:08:43;20.60;18.00
1021;DHT22;499;42.648;23.270;2022-07-23T00:11:10;20.70;18.00
1021;DHT22;499;42.648;23.270;2022-07-23T00:13:37;20.70;18.30
1021;DHT22;499;42.648;23.270;2022-07-23T00:16:04;20.70;18.60
1021;DHT22;499;42.648;23.270;2022-07-23T00:18:31;20.50;18.50
1021;DHT22;499;42.648;23.270;2022-07-23T00:20:58;20.60;18.60
1021;DHT22;499;42.648;23.270;2022-07-23T00:23:27;20.50;18.80
1021;DHT22;499;42.648;23.270;2022-07-23T00:25:54;20.50;18.50
1021;DHT22;499;42.648;23.270;2022-07-23T00:28:22;20.50;18.50
1021;DHT22;499;42.648;23.270;2022-07-23T00:30:48;20.60;18.60
1021;DHT22;499;42.648;23.270;2022-07-23T00:33:15;20.50;18.90
1021;DHT22;499;42.648;23.270;2022-07-23T00:35:42;20.40;18.60
1021;DHT22;499;42.648;23.270;2022-07-23T00:38:10;20.40;19.30
1021;DHT22;499;42.648;23.270;2022-07-23T00:40:39;20.30;19.50
1021;DHT22;499;42.648;23.270;2022-07-23T00:43:06;20.30;19.10
1021;DHT22;499;42.648;23.270;2022-07-23T00:45:33;20.30;19.50
1021;DHT22;499;42.648;23.270;2022-07-23T00:48:00;20.30;19.70
1021;DHT22;499;42.648;23.270;2022-07-23T00:50:28;20.40;19.50
1021;DHT22;499;42.648;23.270;2022-07-23T00:52:55;20.20;19.10
1021;DHT22;499;42.648;23.270;2022-07-23T00:55:23;20.20;19.40
1021;DHT22;499;42.648;23.270;2022-07-23T00:57:53;20.20;19.10
1021;DHT22;499;42.648;23.270;2022-07-23T01:00:20;20.20;19.30
1021;DHT22;499;42.648;23.270;2022-07-23T01:02:47;20.10;19.00
1021;DHT22;499;42.648;23.270;2022-07-23T01:05:15;20.20;18.80
1021;DHT22;499;42.648;23.270;2022-07-23T01:07:43;20.20;18.30
1021;DHT22;499;42.648;23.270;2022-07-23T01:10:11;20.20;18.30
1021;DHT22;499;42.648;23.270;2022-07-23T01:12:53;20.10;18.20
1021;DHT22;499;42.648;23.270;2022-07-23T01:15:20;20.10;18.20
1021;DHT22;499;42.648;23.270;2022-07-23T01:17:47;20.10;18.20
1021;DHT22;499;42.648;23.270;2022-07-23T01:20:14;20.10;18.30
1021;DHT22;499;42.648;23.270;2022-07-23T01:22:43;20.20;18.30
1021;DHT22;499;42.648;23.270;2022-07-23T01:25:10;20.20;18.20
1021;DHT22;499;42.648;23.270;2022-07-23T01:27:37;20.20;17.80
1021;DHT22;499;42.648;23.270;2022-07-23T01:30:05;20.10;18.20
1021;DHT22;499;42.648;23.270;2022-07-23T01:32:32;20.00;18.20
1021;DHT22;499;42.648;23.270;2022-07-23T01:35:00;20.00;18.20
1021;DHT22;499;42.648;23.270;2022-07-23T01:37:27;19.80;18.90
1021;DHT22;499;42.648;23.270;2022-07-23T01:39:55;19.80;18.70
1021;DHT22;499;42.648;23.270;2022-07-23T01:42:22;19.70;19.50
1021;DHT22;499;42.648;23.270;2022-07-23T01:44:49;19.50;20.00
1021;DHT22;499;42.648;23.270;2022-07-23T01:47:17;19.40;20.20
1021;DHT22;499;42.648;23.270;2022-07-23T01:49:44;19.30;20.60
1021;DHT22;499;42.648;23.270;2022-07-23T01:52:11;19.40;20.70
1021;DHT22;499;42.648;23.270;2022-07-23T01:54:39;19.50;19.90
1021;DHT22;499;42.648;23.270;2022-07-23T01:57:08;19.40;19.90
1021;DHT22;499;42.648;23.270;2022-07-23T01:59:35;19.20;20.20
1021;DHT22;499;42.648;23.270;2022-07-23T02:02:04;19.10;20.40
1021;DHT22;499;42.648;23.270;2022-07-23T02:04:32;19.00;20.80
1021;DHT22;499;42.648;23.270;2022-07-23T02:07:00;18.90;20.60
1021;DHT22;499;42.648;23.270;2022-07-23T02:09:27;18.90;20.50
1021;DHT22;499;42.648;23.270;2022-07-23T02:11:55;18.80;20.80
1021;DHT22;499;42.648;23.270;2022-07-23T02:14:23;18.80;20.60
1021;DHT22;499;42.648;23.270;2022-07-23T02:16:50;18.90;20.90
1021;DHT22;499;42.648;23.270;2022-07-23T02:19:18;18.90;19.90
1021;DHT22;499;42.648;23.270;2022-07-23T02:21:45;18.90;20.60
1021;DHT22;499;42.648;23.270;2022-07-23T02:24:12;18.80;20.90
1021;DHT22;499;42.648;23.270;2022-07-23T02:26:39;18.80;20.40
1021;DHT22;499;42.648;23.270;2022-07-23T02:29:06;19.00;19.50
1021;DHT22;499;42.648;23.270;2022-07-23T02:31:34;19.10;19.30
1021;DHT22;499;42.648;23.270;2022-07-23T02:34:02;19.10;19.00
1021;DHT22;499;42.648;23.270;2022-07-23T02:36:29;19.10;19.40
1021;DHT22;499;42.648;23.270;2022-07-23T02:38:56;18.90;19.90
1021;DHT22;499;42.648;23.270;2022-07-23T02:41:23;18.80;20.10
1021;DHT22;499;42.648;23.270;2022-07-23T02:43:50;18.90;19.70
1021;DHT22;499;42.648;23.270;2022-07-23T02:46:17;18.90;19.80
1021;DHT22;499;42.648;23.270;2022-07-23T02:48:46;18.90;19.60
1021;DHT22;499;42.648;23.270;2022-07-23T02:51:13;18.80;20.00
1021;DHT22;499;42.648;23.270;2022-07-23T02:53:40;18.80;20.80
1021;DHT22;499;42.648;23.270;2022-07-23T02:56:07;18.80;20.60
1021;DHT22;499;42.648;23.270;2022-07-23T02:58:34;18.80;20.60
1021;DHT22;499;42.648;23.270;2022-07-23T03:01:01;18.90;20.40
1021;DHT22;499;42.648;23.270;2022-07-23T03:03:28;18.90;20.00
1021;DHT22;499;42.648;23.270;2022-07-23T03:05:56;18.90;20.00
1021;DHT22;499;42.648;23.270;2022-07-23T03:08:23;18.80;19.80
1021;DHT22;499;42.648;23.270;2022-07-23T03:10:50;18.70;20.30
1021;DHT22;499;42.648;23.270;2022-07-23T03:13:17;18.70;20.50
1021;DHT22;499;42.648;23.270;2022-07-23T03:15:44;18.60;20.60
1021;DHT22;499;42.648;23.270;2022-07-23T03:18:11;18.70;21.30
1021;DHT22;499;42.648;23.270;2022-07-23T03:20:38;18.80;20.70
1021;DHT22;499;42.648;23.270;2022-07-23T03:23:07;18.80;20.40
1021;DHT22;499;42.648;23.270;2022-07-23T03:25:34;18.80;21.30
1021;DHT22;499;42.648;23.270;2022-07-23T03:28:01;18.80;20.30
1021;DHT22;499;42.648;23.270;2022-07-23T03:30:28;18.70;20.50
1021;DHT22;499;42.648;23.270;2022-07-23T03:32:55;18.70;21.30
1021;DHT22;499;42.648;23.270;2022-07-23T03:35:22;18.80;21.40
1021;DHT22;499;42.648;23.270;2022-07-23T03:37:49;19.00;20.60
1021;DHT22;499;42.648;23.270;2022-07-23T03:40:17;19.10;20.50
1021;DHT22;499;42.648;23.270;2022-07-23T03:42:44;19.10;21.10
1021;DHT22;499;42.648;23.270;2022-07-23T03:45:12;19.20;21.20
1021;DHT22;499;42.648;23.270;2022-07-23T03:47:38;19.40;21.00
1021;DHT22;499;42.648;23.270;2022-07-23T03:50:07;19.60;21.00
1021;DHT22;499;42.648;23.270;2022-07-23T03:52:34;19.90;20.60
1021;DHT22;499;42.648;23.270;2022-07-23T03:55:01;19.90;20.30
1021;DHT22;499;42.648;23.270;2022-07-23T03:57:30;20.00;20.50
1021;DHT22;499;42.648;23.270;2022-07-23T03:59:57;20.10;20.40
1021;DHT22;499;42.648;23.270;2022-07-23T04:02:24;20.30;20.40
1021;DHT22;499;42.648;23.270;2022-07-23T04:04:51;20.50;20.40
1021;DHT22;499;42.648;23.270;2022-07-23T04:07:18;20.60;19.90
1021;DHT22;499;42.648;23.270;2022-07-23T04:09:45;20.70;20.20
1021;DHT22;499;42.648;23.270;2022-07-23T04:12:12;20.80;20.50
1021;DHT22;499;42.648;23.270;2022-07-23T04:14:41;20.80;20.70
1021;DHT22;499;42.648;23.270;2022-07-23T04:17:08;20.90;21.00
1021;DHT22;499;42.648;23.270;2022-07-23T04:19:35;21.00;20.50
1021;DHT22;499;42.648;23.270;2022-07-23T04:22:05;21.00;20.90
1021;DHT22;499;42.648;23.270;2022-07-23T04:24:32;21.10;21.10
1021;DHT22;499;42.648;23.270;2022-07-23T04:26:59;21.10;21.80
1021;DHT22;499;42.648;23.270;2022-07-23T04:29:26;21.00;22.20
1021;DHT22;499;42.648;23.270;2022-07-23T04:31:55;21.00;22.80
1021;DHT22;499;42.648;23.270;2022-07-23T04:34:22;21.00;23.10
1021;DHT22;499;42.648;23.270;2022-07-23T04:36:52;21.00;22.80
1021;DHT22;499;42.648;23.270;2022-07-23T04:39:19;21.20;23.00
1021;DHT22;499;42.648;23.270;2022-07-23T04:41:46;21.30;23.00
1021;DHT22;499;42.648;23.270;2022-07-23T04:44:13;21.40;23.40
1021;DHT22;499;42.648;23.270;2022-07-23T04:46:40;21.40;23.20
1021;DHT22;499;42.648;23.270;2022-07-23T04:49:08;21.40;22.60
1021;DHT22;499;42.648;23.270;2022-07-23T04:51:35;21.40;23.10
1021;DHT22;499;42.648;23.270;2022-07-23T04:54:03;21.50;22.90
1021;DHT22;499;42.648;23.270;2022-07-23T04:56:30;21.70;22.00
1021;DHT22;499;42.648;23.270;2022-07-23T04:58:56;21.70;21.10
1021;DHT22;499;42.648;23.270;2022-07-23T05:01:24;21.70;20.10
1021;DHT22;499;42.648;23.270;2022-07-23T05:03:51;21.70;20.00
1021;DHT22;499;42.648;23.270;2022-07-23T05:06:19;21.50;20.10
1021;DHT22;499;42.648;23.270;2022-07-23T05:08:46;21.50;21.60
1021;DHT22;499;42.648;23.270;2022-07-23T05:11:13;21.50;21.90
1021;DHT22;499;42.648;23.270;2022-07-23T05:13:40;21.60;22.70
1021;DHT22;499;42.648;23.270;2022-07-23T05:16:07;21.70;23.70
1021;DHT22;499;42.648;23.270;2022-07-23T05:18:34;21.90;22.50
1021;DHT22;499;42.648;23.270;2022-07-23T05:21:01;22.10;22.20
1021;DHT22;499;42.648;23.270;2022-07-23T05:23:30;22.30;23.00
1021;DHT22;499;42.648;23.270;2022-07-23T05:25:57;22.40;22.00
1021;DHT22;499;42.648;23.270;2022-07-23T05:28:24;22.60;21.20
1021;DHT22;499;42.648;23.270;2022-07-23T05:30:51;22.80;20.20
1021;DHT22;499;42.648;23.270;2022-07-23T05:33:18;22.90;21.30
1021;DHT22;499;42.648;23.270;2022-07-23T05:35:46;23.00;20.20
1021;DHT22;499;42.648;23.270;2022-07-23T05:38:13;23.00;19.10
1021;DHT22;499;42.648;23.270;2022-07-23T05:40:41;23.10;19.70
1021;DHT22;499;42.648;23.270;2022-07-23T05:43:08;23.10;20.20
1021;DHT22;499;42.648;23.270;2022-07-23T05:45:35;23.10;19.90
1021;DHT22;499;42.648;23.270;2022-07-23T05:48:02;23.30;19.90
1021;DHT22;499;42.648;23.270;2022-07-23T05:50:30;23.20;18.70
1021;DHT22;499;42.648;23.270;2022-07-23T05:52:57;23.50;20.50
1021;DHT22;499;42.648;23.270;2022-07-23T05:55:24;23.60;18.80
1021;DHT22;499;42.648;23.270;2022-07-23T05:57:52;23.60;19.70
1021;DHT22;499;42.648;23.270;2022-07-23T06:00:19;23.60;19.10
1021;DHT22;499;42.648;23.270;2022-07-23T06:02:46;23.60;18.40
1021;DHT22;499;42.648;23.270;2022-07-23T06:05:13;23.60;18.10
1021;DHT22;499;42.648;23.270;2022-07-23T06:07:41;23.70;18.40
1021;DHT22;499;42.648;23.270;2022-07-23T06:10:08;24.00;19.10
1021;DHT22;499;42.648;23.270;2022-07-23T06:12:36;24.20;18.50
1021;DHT22;499;42.648;23.270;2022-07-23T06:15:06;24.30;17.70
1021;DHT22;499;42.648;23.270;2022-07-23T06:17:33;24.30;17.20
1021;DHT22;499;42.648;23.270;2022-07-23T06:20:00;24.40;16.10
1021;DHT22;499;42.648;23.270;2022-07-23T06:22:27;24.40;16.20
1021;DHT22;499;42.648;23.270;2022-07-23T06:24:54;24.40;17.10
1021;DHT22;499;42.648;23.270;2022-07-23T06:27:21;24.50;16.60
1021;DHT22;499;42.648;23.270;2022-07-23T06:29:48;24.70;17.30
1021;DHT22;499;42.648;23.270;2022-07-23T06:32:16;24.80;16.20
1021;DHT22;499;42.648;23.270;2022-07-23T06:34:43;24.70;15.90
1021;DHT22;499;42.648;23.270;2022-07-23T06:37:10;24.80;16.60
1021;DHT22;499;42.648;23.270;2022-07-23T06:39:37;24.60;16.10
1021;DHT22;499;42.648;23.270;2022-07-23T06:42:05;24.60;16.60
1021;DHT22;499;42.648;23.270;2022-07-23T06:44:32;24.60;16.50
1021;DHT22;499;42.648;23.270;2022-07-23T06:46:59;24.80;15.00
1021;DHT22;499;42.648;23.270;2022-07-23T06:49:27;24.60;15.30
1021;DHT22;499;42.648;23.270;2022-07-23T06:51:54;24.80;16.60
1021;DHT22;499;42.648;23.270;2022-07-23T06:54:21;25.10;16.10
1021;DHT22;499;42.648;23.270;2022-07-23T06:56:48;25.30;16.90
1021;DHT22;499;42.648;23.270;2022-07-23T06:59:15;25.40;14.40
1021;DHT22;499;42.648;23.270;2022-07-23T07:01:42;25.40;15.50
1021;DHT22;499;42.648;23.270;2022-07-23T07:04:09;25.30;14.90
1021;DHT22;499;42.648;23.270;2022-07-23T07:06:38;25.40;16.80
1021;DHT22;499;42.648;23.270;2022-07-23T07:09:05;25.60;15.90
1021;DHT22;499;42.648;23.270;2022-07-23T07:11:32;25.80;15.40
1021;DHT22;499;42.648;23.270;2022-07-23T07:13:59;25.90;15.10
1021;DHT22;499;42.648;23.270;2022-07-23T07:16:26;26.10;14.40
1021;DHT22;499;42.648;23.270;2022-07-23T07:18:53;26.20;14.30
1021;DHT22;499;42.648;23.270;2022-07-23T07:21:20;26.40;14.00
1021;DHT22;499;42.648;23.270;2022-07-23T07:23:48;26.50;14.10
1021;DHT22;499;42.648;23.270;2022-07-23T07:26:15;26.60;14.10
1021;DHT22;499;42.648;23.270;2022-07-23T07:28:42;26.80;14.30
1021;DHT22;499;42.648;23.270;2022-07-23T07:31:09;26.80;13.50
1021;DHT22;499;42.648;23.270;2022-07-23T07:33:36;26.90;14.30
1021;DHT22;499;42.648;23.270;2022-07-23T07:36:04;26.90;13.00
1021;DHT22;499;42.648;23.270;2022-07-23T07:38:31;26.90;13.80
1021;DHT22;499;42.648;23.270;2022-07-23T07:40:59;26.90;13.90
1021;DHT22;499;42.648;23.270;2022-07-23T07:43:26;27.10;13.70
1021;DHT22;499;42.648;23.270;2022-07-23T07:45:55;27.10;12.90
1021;DHT22;499;42.648;23.270;2022-07-23T07:48:21;27.20;13.70
1021;DHT22;499;42.648;23.270;2022-07-23T07:50:48;27.40;13.40
1021;DHT22;499;42.648;23.270;2022-07-23T07:53:15;27.50;12.80
1021;DHT22;499;42.648;23.270;2022-07-23T07:55:42;27.50;11.40
1021;DHT22;499;42.648;23.270;2022-07-23T07:58:11;27.30;12.20
1021;DHT22;499;42.648;23.270;2022-07-23T08:00:38;27.30;12.80
1021;DHT22;499;42.648;23.270;2022-07-23T08:03:05;27.30;13.30
1021;DHT22;499;42.648;23.270;2022-07-23T08:05:32;27.50;13.00
1021;DHT22;499;42.648;23.270;2022-07-23T08:07:59;27.40;11.80
1021;DHT22;499;42.648;23.270;2022-07-23T08:10:28;27.70;12.80
1021;DHT22;499;42.648;23.270;2022-07-23T08:12:57;27.80;12.40
1021;DHT22;499;42.648;23.270;2022-07-23T08:15:29;28.00;12.50
1021;DHT22;499;42.648;23.270;2022-07-23T08:17:56;28.20;12.00
1021;DHT22;499;42.648;23.270;2022-07-23T08:20:24;28.40;12.10
1021;DHT22;499;42.648;23.270;2022-07-23T08:22:55;28.40;10.80
1021;DHT22;499;42.648;23.270;2022-07-23T08:25:24;28.40;11.00
1021;DHT22;499;42.648;23.270;2022-07-23T08:27:52;28.60;12.10
1021;DHT22;499;42.648;23.270;2022-07-23T08:30:20;28.80;11.10
1021;DHT22;499;42.648;23.270;2022-07-23T08:32:57;29.00;10.30
1021;DHT22;499;42.648;23.270;2022-07-23T08:35:27;29.00;9.70
1021;DHT22;499;42.648;23.270;2022-07-23T08:37:55;29.10;9.40
1021;DHT22;499;42.648;23.270;2022-07-23T08:40:23;29.20;9.70
1021;DHT22;499;42.648;23.270;2022-07-23T08:42:52;29.20;9.10
1021;DHT22;499;42.648;23.270;2022-07-23T08:45:20;29.30;9.20
1021;DHT22;499;42.648;23.270;2022-07-23T08:47:51;29.50;8.20
1021;DHT22;499;42.648;23.270;2022-07-23T08:50:20;29.50;8.80
1021;DHT22;499;42.648;23.270;2022-07-23T08:52:49;29.60;9.20
1021;DHT22;499;42.648;23.270;2022-07-23T08:55:16;29.70;8.70
1021;DHT22;499;42.648;23.270;2022-07-23T08:57:44;29.80;7.70
1021;DHT22;499;42.648;23.270;2022-07-23T09:00:12;29.90;7.40
1021;DHT22;499;42.648;23.270;2022-07-23T09:02:41;29.80;7.40
1021;DHT22;499;42.648;23.270;2022-07-23T09:05:09;29.60;5.80
1021;DHT22;499;42.648;23.270;2022-07-23T09:08:05;29.80;6.10
1021;DHT22;499;42.648;23.270;2022-07-23T09:10:43;29.90;7.20
1021;DHT22;499;42.648;23.270;2022-07-23T09:13:32;30.00;4.60
1021;DHT22;499;42.648;23.270;2022-07-23T09:16:03;30.10;5.00
1021;DHT22;499;42.648;23.270;2022-07-23T09:18:36;30.20;4.20
1021;DHT22;499;42.648;23.270;2022-07-23T09:21:12;30.20;4.60
1021;DHT22;499;42.648;23.270;2022-07-23T09:23:43;30.20;4.70
1021;DHT22;499;42.648;23.270;2022-07-23T09:26:24;30.20;2.90
1021;DHT22;499;42.648;23.270;2022-07-23T09:28:58;30.30;4.00
1021;DHT22;499;42.648;23.270;2022-07-23T09:31:31;30.40;4.00
1021;DHT22;499;42.648;23.270;2022-07-23T09:34:10;30.60;3.50
1021;DHT22;499;42.648;23.270;2022-07-23T09:36:37;30.70;2.10
1021;DHT22;499;42.648;23.270;2022-07-23T09:39:06;30.80;1.40
1021;DHT22;499;42.648;23.270;2022-07-23T09:41:39;30.80;2.60
1021;DHT22;499;42.648;23.270;2022-07-23T09:44:09;30.90;2.00
1021;DHT22;499;42.648;23.270;2022-07-23T09:46:37;31.00;1.40
1021;DHT22;499;42.648;23.270;2022-07-23T09:49:17;31.20;1.00
1021;DHT22;499;42.648;23.270;2022-07-23T09:51:46;31.20;1.00
1021;DHT22;499;42.648;23.270;2022-07-23T09:54:27;31.20;1.00
1021;DHT22;499;42.648;23.270;2022-07-23T09:56:56;31.30;1.00
1021;DHT22;499;42.648;23.270;2022-07-23T09:59:25;31.40;1.00
1021;DHT22;499;42.648;23.270;2022-07-23T10:01:54;31.50;1.00
1021;DHT22;499;42.648;23.270;2022-07-23T10:04:23;31.50;1.00
1021;DHT22;499;42.648;23.270;2022-07-23T10:06:52;31.50;1.00
1021;DHT22;499;42.648;23.270;2022-07-23T10:09:25;31.60;1.00
1021;DHT22;499;42.648;23.270;2022-07-23T10:11:55;31.80;1.00
1021;DHT22;499;42.648;23.270;2022-07-23T10:14:27;31.90;1.00
1021;DHT22;499;42.648;23.270;2022-07-23T10:16:57;32.00;1.00
1021;DHT22;499;42.648;23.270;2022-07-23T10:19:25;32.10;1.00
1021;DHT22;499;42.648;23.270;2022-07-23T10:21:56;32.10;1.00
1021;DHT22;499;42.648;23.270;2022-07-23T10:24:40;32.10;1.00
1021;DHT22;499;42.648;23.270;2022-07-23T10:27:31;32.10;1.00
1021;DHT22;499;42.648;23.270;2022-07-23T10:30:03;32.30;1.00
1021;DHT22;499;42.648;23.270;2022-07-23T10:32:37;32.30;1.00
1021;DHT22;499;42.648;23.270;2022-07-23T10:35:10;32.30;1.00
1021;DHT22;499;42.648;23.270;2022-07-23T10:37:42;32.40;1.00
1021;DHT22;499;42.648;23.270;2022-07-23T10:40:14;32.50;1.00
1021;DHT22;499;42.648;23.270;2022-07-23T10:42:43;32.50;1.00
1021;DHT22;499;42.648;23.270;2022-07-23T10:45:24;32.60;1.00
1021;DHT22;499;42.648;23.270;2022-07-23T10:47:52;32.60;1.00
1021;DHT22;499;42.648;23.270;2022-07-23T10:50:24;32.70;1.00
1021;DHT22;499;42.648;23.270;2022-07-23T10:53:14;32.50;1.00
1021;DHT22;499;42.648;23.270;2022-07-23T10:55:53;32.50;1.00
1021;DHT22;499;42.648;23.270;2022-07-23T10:58:22;32.50;1.00
1021;DHT22;499;42.648;23.270;2022-07-23T11:00:50;32.60;1.00
1021;DHT22;499;42.648;23.270;2022-07-23T11:03:34;32.60;1.00
1021;DHT22;499;42.648;23.270;2022-07-23T11:06:05;32.80;1.00
1021;DHT22;499;42.648;23.270;2022-07-23T11:08:32;32.90;1.00
1021;DHT22;499;42.648;23.270;2022-07-23T11:11:11;33.00;1.00
1021;DHT22;499;42.648;23.270;2022-07-23T11:13:46;33.00;1.00
1021;DHT22;499;42.648;23.270;2022-07-23T11:16:25;33.00;1.00
1021;DHT22;499;42.648;23.270;2022-07-23T11:19:09;33.20;1.00
1021;DHT22;499;42.648;23.270;2022-07-23T11:21:49;33.10;1.00
1021;DHT22;499;42.648;23.270;2022-07-23T11:24:20;33.00;1.00
1021;DHT22;499;42.648;23.270;2022-07-23T11:27:04;32.90;1.00
1021;DHT22;499;42.648;23.270;2022-07-23T11:29:55;33.00;1.00
1021;DHT22;499;42.648;23.270;2022-07-23T11:32:33;33.00;1.00
1021;DHT22;499;42.648;23.270;2022-07-23T11:35:01;32.70;1.00
1021;DHT22;499;42.648;23.270;2022-07-23T11:37:33;32.80;1.00
1021;DHT22;499;42.648;23.270;2022-07-23T11:40:02;33.00;1.00
1021;DHT22;499;42.648;23.270;2022-07-23T11:42:32;33.00;1.00
1021;DHT22;499;42.648;23.270;2022-07-23T11:44:59;33.00;1.00
1021;DHT22;499;42.648;23.270;2022-07-23T11:47:27;33.10;1.00
1021;DHT22;499;42.648;23.270;2022-07-23T11:49:55;33.20;1.00
1021;DHT22;499;42.648;23.270;2022-07-23T11:52:23;33.40;1.00
1021;DHT22;499;42.648;23.270;2022-07-23T11:54:52;33.50;1.00
1021;DHT22;499;42.648;23.270;2022-07-23T11:57:21;33.50;1.00
1021;DHT22;499;42.648;23.270;2022-07-23T11:59:54;33.50;1.00
1021;DHT22;499;42.648;23.270;2022-07-23T12:02:22;33.50;1.00
1021;DHT22;499;42.648;23.270;2022-07-23T12:04:50;33.50;1.00
1021;DHT22;499;42.648;23.270;2022-07-23T12:07:32;33.70;1.00
1021;DHT22;499;42.648;23.270;2022-07-23T12:10:02;33.90;1.00
1021;DHT22;499;42.648;23.270;2022-07-23T12:12:36;33.80;1.00
1021;DHT22;499;42.648;23.270;2022-07-23T12:15:06;33.80;1.00
1021;DHT22;499;42.648;23.270;2022-07-23T12:17:35;33.90;1.00
1021;DHT22;499;42.648;23.270;2022-07-23T12:20:04;33.90;1.00
1021;DHT22;499;42.648;23.270;2022-07-23T12:22:37;34.00;1.00
1021;DHT22;499;42.648;23.270;2022-07-23T12:25:06;34.00;1.00
1021;DHT22;499;42.648;23.270;2022-07-23T12:27:34;34.10;1.00
1021;DHT22;499;42.648;23.270;2022-07-23T12:30:23;34.10;1.00
1021;DHT22;499;42.648;23.270;2022-07-23T12:32:52;34.10;1.00
1021;DHT22;499;42.648;23.270;2022-07-23T12:35:20;34.20;1.00
1021;DHT22;499;42.648;23.270;2022-07-23T12:37:49;34.20;1.00
1021;DHT22;499;42.648;23.270;2022-07-23T12:40:36;34.20;1.00
1021;DHT22;499;42.648;23.270;2022-07-23T12:43:06;34.20;1.00
1021;DHT22;499;42.648;23.270;2022-07-23T12:45:46;34.20;1.00
1021;DHT22;499;42.648;23.270;2022-07-23T12:48:19;34.20;1.00
1021;DHT22;499;42.648;23.270;2022-07-23T12:50:51;34.20;1.00
1021;DHT22;499;42.648;23.270;2022-07-23T12:53:20;34.10;1.00
1021;DHT22;499;42.648;23.270;2022-07-23T12:55:48;34.00;1.00
1021;DHT22;499;42.648;23.270;2022-07-23T12:58:17;34.00;1.00
1021;DHT22;499;42.648;23.270;2022-07-23T13:01:03;34.20;1.00
1021;DHT22;499;42.648;23.270;2022-07-23T13:03:34;34.40;1.00
1021;DHT22;499;42.648;23.270;2022-07-23T13:06:02;34.40;1.00
1021;DHT22;499;42.648;23.270;2022-07-23T13:08:31;34.60;1.00
1021;DHT22;499;42.648;23.270;2022-07-23T13:10:59;34.70;1.00
1021;DHT22;499;42.648;23.270;2022-07-23T13:13:30;34.80;1.00
1021;DHT22;499;42.648;23.270;2022-07-23T13:15:59;34.80;1.00
1021;DHT22;499;42.648;23.270;2022-07-23T13:18:26;34.70;1.00
1021;DHT22;499;42.648;23.270;2022-07-23T13:20:54;34.60;1.00
1021;DHT22;499;42.648;23.270;2022-07-23T13:23:21;34.50;1.00
1021;DHT22;499;42.648;23.270;2022-07-23T13:25:49;34.40;1.00
1021;DHT22;499;42.648;23.270;2022-07-23T13:28:17;34.50;1.00
1021;DHT22;499;42.648;23.270;2022-07-23T13:30:45;34.40;1.00
1021;DHT22;499;42.648;23.270;2022-07-23T13:33:15;34.50;1.00
1021;DHT22;499;42.648;23.270;2022-07-23T13:35:42;34.50;1.00
1021;DHT22;499;42.648;23.270;2022-07-23T13:38:10;34.40;1.00
1021;DHT22;499;42.648;23.270;2022-07-23T13:40:38;34.50;1.00
1021;DHT22;499;42.648;23.270;2022-07-23T13:43:08;34.60;1.00
1021;DHT22;499;42.648;23.270;2022-07-23T13:45:35;34.60;1.00
1021;DHT22;499;42.648;23.270;2022-07-23T13:48:04;34.60;1.00
1021;DHT22;499;42.648;23.270;2022-07-23T13:50:33;34.70;1.00
1021;DHT22;499;42.648;23.270;2022-07-23T13:53:02;34.80;1.00
1021;DHT22;499;42.648;23.270;2022-07-23T13:55:29;34.80;1.00
1021;DHT22;499;42.648;23.270;2022-07-23T13:57:56;34.70;1.00
1021;DHT22;499;42.648;23.270;2022-07-23T14:00:24;34.80;1.00
1021;DHT22;499;42.648;23.270;2022-07-23T14:02:51;34.80;1.00
1021;DHT22;499;42.648;23.270;2022-07-23T14:05:18;34.70;1.00
1021;DHT22;499;42.648;23.270;2022-07-23T14:07:46;34.60;1.00
1021;DHT22;499;42.648;23.270;2022-07-23T14:10:16;34.50;1.00
1021;DHT22;499;42.648;23.270;2022-07-23T14:12:43;34.50;1.00
1021;DHT22;499;42.648;23.270;2022-07-23T14:15:10;34.40;1.00
1021;DHT22;499;42.648;23.270;2022-07-23T14:17:38;34.30;1.00
1021;DHT22;499;42.648;23.270;2022-07-23T14:20:06;34.40;1.00
1021;DHT22;499;42.648;23.270;2022-07-23T14:22:33;34.40;1.00
1021;DHT22;499;42.648;23.270;2022-07-23T14:25:03;34.50;1.00
1021;DHT22;499;42.648;23.270;2022-07-23T14:27:30;34.50;1.00
1021;DHT22;499;42.648;23.270;2022-07-23T14:29:58;34.50;1.00
1021;DHT22;499;42.648;23.270;2022-07-23T14:32:25;34.50;1.00
1021;DHT22;499;42.648;23.270;2022-07-23T14:34:52;34.60;1.00
1021;DHT22;499;42.648;23.270;2022-07-23T14:37:19;34.60;1.00
1021;DHT22;499;42.648;23.270;2022-07-23T14:39:47;34.80;1.00
1021;DHT22;499;42.648;23.270;2022-07-23T14:42:15;35.00;1.00
1021;DHT22;499;42.648;23.270;2022-07-23T14:44:42;35.00;1.00
1021;DHT22;499;42.648;23.270;2022-07-23T14:47:09;35.10;1.00
1021;DHT22;499;42.648;23.270;2022-07-23T14:49:37;35.20;1.00
1021;DHT22;499;42.648;23.270;2022-07-23T14:52:04;35.20;1.00
1021;DHT22;499;42.648;23.270;2022-07-23T14:54:32;35.30;1.00
1021;DHT22;499;42.648;23.270;2022-07-23T14:57:00;35.20;1.00
1021;DHT22;499;42.648;23.270;2022-07-23T14:59:29;35.10;1.00
1021;DHT22;499;42.648;23.270;2022-07-23T15:01:57;35.10;1.00
1021;DHT22;499;42.648;23.270;2022-07-23T15:04:24;35.20;1.00
1021;DHT22;499;42.648;23.270;2022-07-23T15:06:52;35.30;1.00
1021;DHT22;499;42.648;23.270;2022-07-23T15:09:19;35.40;1.00
1021;DHT22;499;42.648;23.270;2022-07-23T15:11:46;35.30;1.00
1021;DHT22;499;42.648;23.270;2022-07-23T15:14:13;35.50;1.00
1021;DHT22;499;42.648;23.270;2022-07-23T15:16:41;35.30;1.00
1021;DHT22;499;42.648;23.270;2022-07-23T15:19:08;35.30;1.00
1021;DHT22;499;42.648;23.270;2022-07-23T15:21:35;35.60;1.00
1021;DHT22;499;42.648;23.270;2022-07-23T15:24:03;36.10;1.00
1021;DHT22;499;42.648;23.270;2022-07-23T15:26:31;36.70;1.00
1021;DHT22;499;42.648;23.270;2022-07-23T15:28:58;37.30;1.00
1021;DHT22;499;42.648;23.270;2022-07-23T15:31:26;37.80;1.00
1021;DHT22;499;42.648;23.270;2022-07-23T15:34:03;38.40;1.00
1021;DHT22;499;42.648;23.270;2022-07-23T15:36:30;38.30;1.00
1021;DHT22;499;42.648;23.270;2022-07-23T15:38:57;38.60;1.00
1021;DHT22;499;42.648;23.270;2022-07-23T15:41:24;38.90;1.00
1021;DHT22;499;42.648;23.270;2022-07-23T15:43:51;38.80;1.00
1021;DHT22;499;42.648;23.270;2022-07-23T15:46:20;38.90;1.00
1021;DHT22;499;42.648;23.270;2022-07-23T15:48:49;39.10;1.00
1021;DHT22;499;42.648;23.270;2022-07-23T15:51:17;39.60;1.00
1021;DHT22;499;42.648;23.270;2022-07-23T15:53:44;39.70;1.00
1021;DHT22;499;42.648;23.270;2022-07-23T15:56:11;40.40;1.00
1021;DHT22;499;42.648;23.270;2022-07-23T15:58:39;40.80;1.00
1021;DHT22;499;42.648;23.270;2022-07-23T16:01:06;41.00;1.00
1021;DHT22;499;42.648;23.270;2022-07-23T16:03:34;41.00;1.00
1021;DHT22;499;42.648;23.270;2022-07-23T16:06:02;41.10;1.00
1021;DHT22;499;42.648;23.270;2022-07-23T16:08:32;40.80;1.00
1021;DHT22;499;42.648;23.270;2022-07-23T16:10:59;40.80;1.00
1021;DHT22;499;42.648;23.270;2022-07-23T16:13:27;39.80;1.00
1021;DHT22;499;42.648;23.270;2022-07-23T16:15:55;39.40;1.00
1021;DHT22;499;42.648;23.270;2022-07-23T16:18:22;39.00;1.00
1021;DHT22;499;42.648;23.270;2022-07-23T16:20:50;38.50;1.00